Northern Mariner — WDD2558 — position and weather

sailwx.info

Track history (hours):
 
Tides and Currents Weather Stations Pressure Air Temp Water Temp Dewpoint Dewpoint Depression Visibility Wind Speed Wind Dir Waves Ship Positions

Northern Mariner

Owner: LMW Investmrnts Inc., San Diego, CA. More information available from US FCC via Universal Licensing System and Coast Guard Vessel Documentation Center.

Last reported at 2017-Nov-16 12:58 UTC. Time now 2017-Nov-21 23:18 UTC.
Position N 32°43' W 117°12'.

Length 22 m; draft 3 m.

Type: Towing. MMSI: 367116840.

Date/timePositionNaut miles runAvg speedWind from/ knotsBaromVisibWave heightAir tempDewpointWater temp
2017-Nov-16 12:58N 32°43' W 117°12'6 5.9
2017-Nov-16 11:53N 32°37' W 117°15'2 5.0
2017-Nov-16 11:27N 32°38' W 117°18'2 4.8
2017-Nov-16 10:57N 32°38' W 117°21'2 4.7
2017-Nov-16 10:30N 32°39' W 117°23'2 4.5
2017-Nov-16 10:00N 32°40' W 117°25'2 4.6
2017-Nov-16 09:30N 32°40' W 117°28'2 4.5
2017-Nov-16 09:00N 32°41' W 117°31'2 4.5
2017-Nov-16 08:30N 32°42' W 117°33'2 4.2
2017-Nov-16 08:00N 32°43' W 117°35'2 4.2
2017-Nov-16 07:30N 32°44' W 117°38'2 4.5
2017-Nov-16 07:00N 32°45' W 117°40'2 4.5
2017-Nov-16 06:30N 32°45' W 117°43'5 5.6
2017-Nov-16 05:35N 32°47' W 117°48'0 6.1
2017-Nov-16 05:30N 32°47' W 117°49'3 5.6
2017-Nov-16 05:00N 32°48' W 117°52'3 5.4
2017-Nov-16 04:30N 32°49' W 117°55'10 5.6
2017-Nov-16 02:38N 32°53' W 118°06'1 5.8
2017-Nov-16 02:28N 32°54' W 118°07'3 6.1
2017-Nov-16 01:58N 32°55' W 118°11'4 6.1
2017-Nov-16 01:20N 32°56' W 118°15'2 6.0
2017-Nov-16 01:00N 32°57' W 118°17'3 6.1
2017-Nov-16 00:30N 32°58' W 118°21'4 6.2
2017-Nov-15 23:52N 32°59' W 118°25'4 6.0
2017-Nov-15 23:07N 33°01' W 118°30'1 6.1
2017-Nov-15 23:00N 33°01' W 118°31'2 0.2
2017-Nov-15 14:43N 33°01' W 118°33'15 3.8
2017-Nov-15 10:48N 32°53' W 118°18'1 4.2
2017-Nov-15 10:28N 32°52' W 118°17'5 4.2
2017-Nov-15 09:12N 32°50' W 118°11'1 4.3
2017-Nov-15 08:58N 32°50' W 118°10'2 4.5
2017-Nov-15 08:28N 32°49' W 118°07'18 5.0
2017-Nov-15 04:47N 32°43' W 117°47'1 5.2
2017-Nov-15 04:30N 32°43' W 117°45'3 5.3
2017-Nov-15 04:00N 32°42' W 117°42'3 5.2
2017-Nov-15 03:30N 32°41' W 117°39'3 5.5
2017-Nov-15 03:00N 32°41' W 117°36'3 5.4
2017-Nov-15 02:30N 32°40' W 117°32'3 5.4
2017-Nov-15 02:00N 32°40' W 117°29'3 5.5
2017-Nov-15 01:30N 32°39' W 117°26'3 5.7
2017-Nov-15 01:00N 32°39' W 117°23'4 5.4
2017-Nov-15 00:16N 32°38' W 117°18'2 5.8
2017-Nov-14 23:54N 32°37' W 117°16'4 5.1
2017-Nov-14 23:06N 32°41' W 117°14'1 2.5
2017-Nov-14 22:39N 32°42' W 117°14'0 0.0
2017-Nov-14 22:28N 32°42' W 117°14'0 0.0
2017-Nov-14 22:00N 32°42' W 117°14'0 0.0
2017-Nov-14 21:04N 32°42' W 117°14'0 0.0
2017-Nov-14 20:50N 32°42' W 117°14'0 0.2
2017-Nov-14 20:30N 32°42' W 117°14'  
2017-Nov-09 13:05N 32°43' W 117°12'1 6.5
2017-Nov-09 12:57N 32°43' W 117°13'6 5.5
2017-Nov-09 11:52N 32°37' W 117°15'2 4.8
2017-Nov-09 11:29N 32°37' W 117°17'3 5.0
2017-Nov-09 10:53N 32°38' W 117°21'2 5.1
2017-Nov-09 10:30N 32°38' W 117°23'2 4.8
2017-Nov-09 10:00N 32°39' W 117°26'2 4.8
2017-Nov-09 09:30N 32°40' W 117°28'2 5.0
2017-Nov-09 09:00N 32°41' W 117°31'2 4.9
2017-Nov-09 08:30N 32°42' W 117°34'2 4.7
2017-Nov-09 08:00N 32°43' W 117°36'2 4.7
2017-Nov-09 07:30N 32°43' W 117°39'2 4.8
2017-Nov-09 07:00N 32°44' W 117°42'2 4.8
2017-Nov-09 06:30N 32°45' W 117°44'2 0.1
2017-Nov-08 05:28N 32°44' W 117°45'3 5.6
2017-Nov-08 04:54N 32°43' W 117°42'3 5.6
2017-Nov-08 04:26N 32°42' W 117°39'2 5.5
2017-Nov-08 04:00N 32°42' W 117°36'3 5.6
2017-Nov-08 03:30N 32°41' W 117°33'3 5.3
2017-Nov-08 03:00N 32°40' W 117°30'3 5.4
2017-Nov-08 02:30N 32°39' W 117°26'3 5.3
2017-Nov-08 02:00N 32°39' W 117°23'14 1.1
2017-Nov-07 13:47N 32°40' W 117°07'2 7.1
2017-Nov-07 13:27N 32°42' W 117°09'  
Track history (hours):
 
Tides and Currents Weather Stations Pressure Air Temp Water Temp Dewpoint Dewpoint Depression Visibility Wind Speed Wind Dir Waves Ship Positions

Northern Mariner

Owner: LMW Investmrnts Inc., San Diego, CA. More information available from US FCC via Universal Licensing System and Coast Guard Vessel Documentation Center.

Last reported at 2017-Nov-16 12:58 UTC. Time now 2017-Nov-21 23:18 UTC.
Position N 32°43' W 117°12'.

Length 22 m; draft 3 m.

Type: Towing. MMSI: 367116840.

Date/timePositionNaut miles runAvg speedWind from/ knotsBaromVisibWave heightAir tempDewpointWater temp
2017-Nov-16 12:58N 32°43' W 117°12'6 5.9
2017-Nov-16 11:53N 32°37' W 117°15'2 5.0
2017-Nov-16 11:27N 32°38' W 117°18'2 4.8
2017-Nov-16 10:57N 32°38' W 117°21'2 4.7
2017-Nov-16 10:30N 32°39' W 117°23'2 4.5
2017-Nov-16 10:00N 32°40' W 117°25'2 4.6
2017-Nov-16 09:30N 32°40' W 117°28'2 4.5
2017-Nov-16 09:00N 32°41' W 117°31'2 4.5
2017-Nov-16 08:30N 32°42' W 117°33'2 4.2
2017-Nov-16 08:00N 32°43' W 117°35'2 4.2
2017-Nov-16 07:30N 32°44' W 117°38'2 4.5
2017-Nov-16 07:00N 32°45' W 117°40'2 4.5
2017-Nov-16 06:30N 32°45' W 117°43'5 5.6
2017-Nov-16 05:35N 32°47' W 117°48'0 6.1
2017-Nov-16 05:30N 32°47' W 117°49'3 5.6
2017-Nov-16 05:00N 32°48' W 117°52'3 5.4
2017-Nov-16 04:30N 32°49' W 117°55'10 5.6
2017-Nov-16 02:38N 32°53' W 118°06'1 5.8
2017-Nov-16 02:28N 32°54' W 118°07'3 6.1
2017-Nov-16 01:58N 32°55' W 118°11'4 6.1
2017-Nov-16 01:20N 32°56' W 118°15'2 6.0
2017-Nov-16 01:00N 32°57' W 118°17'3 6.1
2017-Nov-16 00:30N 32°58' W 118°21'4 6.2
2017-Nov-15 23:52N 32°59' W 118°25'4 6.0
2017-Nov-15 23:07N 33°01' W 118°30'1 6.1
2017-Nov-15 23:00N 33°01' W 118°31'2 0.2
2017-Nov-15 14:43N 33°01' W 118°33'15 3.8
2017-Nov-15 10:48N 32°53' W 118°18'1 4.2
2017-Nov-15 10:28N 32°52' W 118°17'5 4.2
2017-Nov-15 09:12N 32°50' W 118°11'1 4.3
2017-Nov-15 08:58N 32°50' W 118°10'2 4.5
2017-Nov-15 08:28N 32°49' W 118°07'18 5.0
2017-Nov-15 04:47N 32°43' W 117°47'1 5.2
2017-Nov-15 04:30N 32°43' W 117°45'3 5.3
2017-Nov-15 04:00N 32°42' W 117°42'3 5.2
2017-Nov-15 03:30N 32°41' W 117°39'3 5.5
2017-Nov-15 03:00N 32°41' W 117°36'3 5.4
2017-Nov-15 02:30N 32°40' W 117°32'3 5.4
2017-Nov-15 02:00N 32°40' W 117°29'3 5.5
2017-Nov-15 01:30N 32°39' W 117°26'3 5.7
2017-Nov-15 01:00N 32°39' W 117°23'4 5.4
2017-Nov-15 00:16N 32°38' W 117°18'2 5.8
2017-Nov-14 23:54N 32°37' W 117°16'4 5.1
2017-Nov-14 23:06N 32°41' W 117°14'1 2.5
2017-Nov-14 22:39N 32°42' W 117°14'0 0.0
2017-Nov-14 22:28N 32°42' W 117°14'0 0.0
2017-Nov-14 22:00N 32°42' W 117°14'0 0.0
2017-Nov-14 21:04N 32°42' W 117°14'0 0.0
2017-Nov-14 20:50N 32°42' W 117°14'0 0.2
2017-Nov-14 20:30N 32°42' W 117°14'  
2017-Nov-09 13:05N 32°43' W 117°12'1 6.5
2017-Nov-09 12:57N 32°43' W 117°13'6 5.5
2017-Nov-09 11:52N 32°37' W 117°15'2 4.8
2017-Nov-09 11:29N 32°37' W 117°17'3 5.0
2017-Nov-09 10:53N 32°38' W 117°21'2 5.1
2017-Nov-09 10:30N 32°38' W 117°23'2 4.8
2017-Nov-09 10:00N 32°39' W 117°26'2 4.8
2017-Nov-09 09:30N 32°40' W 117°28'2 5.0
2017-Nov-09 09:00N 32°41' W 117°31'2 4.9
2017-Nov-09 08:30N 32°42' W 117°34'2 4.7
2017-Nov-09 08:00N 32°43' W 117°36'2 4.7
2017-Nov-09 07:30N 32°43' W 117°39'2 4.8
2017-Nov-09 07:00N 32°44' W 117°42'2 4.8
2017-Nov-09 06:30N 32°45' W 117°44'2 0.1
2017-Nov-08 05:28N 32°44' W 117°45'3 5.6
2017-Nov-08 04:54N 32°43' W 117°42'3 5.6
2017-Nov-08 04:26N 32°42' W 117°39'2 5.5
2017-Nov-08 04:00N 32°42' W 117°36'3 5.6
2017-Nov-08 03:30N 32°41' W 117°33'3 5.3
2017-Nov-08 03:00N 32°40' W 117°30'3 5.4
2017-Nov-08 02:30N 32°39' W 117°26'3 5.3
2017-Nov-08 02:00N 32°39' W 117°23'14 1.1
2017-Nov-07 13:47N 32°40' W 117°07'2 7.1
2017-Nov-07 13:27N 32°42' W 117°09'  

Dump ship's entire track history